Hlavní strana
METAR-TAF:

METAR-TAF

Letiště :

L. M. Clayton Airport

Wolf Point, Montana, Spojené státy americké

zeměpisná šířka: 48-05-40N, zeměpisná délka: 105-34-38W, výška: 605 m

Aktuální stav počasí

Zpráva byla vytvořena před 41 minutami, v 00:53 UTC
Bezvětří
Teplota -7°C
Vlhkost vzduchu 86%
Tlak 1024 hPa
Viditelnost: 16.1 km
Jasno

METAR: KOLF 060053Z AUTO 00000KT 10SM CLR M07/M09 A3023 RMK AO2 SLP270 T10671094

Čas: 18:34 (01:34 UTC)

Předpověď počasí

Zpráva byla vytvořena před 2 hodinami a 7 minutami, v 23:27 UTC
Předpověď platná od 06 v 00 UTC do 06 v 24 UTC
vítr z různých směrů 4 kt
Viditelnost: 10 km
Polojasno ve výšce 3000 ft

TAF: KOLF 052327Z 0600/0624 VRB04KT P6SM SCT030

Stav a předpovědi počasí z více než 4 000 letišť (zprávy METAR a TAF).

Červené a žluté tečky na mapě představují dostupné meteorologické stanice.

Když kurzor umístíte na tečku, zobrazí se název stanice.

Pak kliknutím zobrazíte stav a předpověď počasí.

Chcete-li změnit mapu, kliknutím na zelené tlačítko se znaménkem +mapu přiblížíte, kliknutím na zelené tlačítko se znaménkem – mapu oddálíte a kliknutím na zelené šipky přejdete na sousední mapy.


METAR-TAF: